NKS607 KFLL-KMCO
Flight info
| Callsign | NKS607 |
|---|---|
| Flight time | 0h 34m |
| Altitude | 18000 |
| Route | FRSBE2 WAPOM MUNGI1 |
| Aircraft | A321/M-SDE3FGHIRWY/LB1 |
Departure
| Time | 2026-05-03 21:47 |
|---|---|
| Airport | Fort Lauderdale Hollywood International Airport (KFLL) |
Arrival
| Time | 2026-05-03 22:21 |
|---|---|
| Airport | Orlando International Airport (KMCO) |
| Time | Latitude | Longitude | Altitude | Speed | Heading |
|---|---|---|---|---|---|
| 2026-05-03 20:40 | 26.06922 | -80.14136 | 12 ft | 0 kts | 298° |
| 2026-05-03 20:56 | 26.06919 | -80.14129 | 12 ft | 2 kts | 285° |
| 2026-05-03 20:56 | 26.06919 | -80.14111 | 12 ft | 2 kts | 248° |
| 2026-05-03 20:57 | 26.06928 | -80.14098 | 12 ft | 2 kts | 217° |
| 2026-05-03 20:57 | 26.06940 | -80.14087 | 12 ft | 2 kts | 206° |
| 2026-05-03 20:57 | 26.06954 | -80.14083 | 12 ft | 1 kts | 182° |
| 2026-05-03 20:57 | 26.06949 | -80.14084 | 12 ft | 3 kts | 184° |
| 2026-05-03 20:58 | 26.06929 | -80.14084 | 12 ft | 0 kts | 180° |
| 2026-05-03 21:06 | 26.06924 | -80.14084 | 12 ft | 2 kts | 180° |
| 2026-05-03 21:06 | 26.06891 | -80.14084 | 12 ft | 5 kts | 180° |
| 2026-05-03 21:06 | 26.06838 | -80.14098 | 12 ft | 8 kts | 218° |
| 2026-05-03 21:06 | 26.06819 | -80.14161 | 12 ft | 8 kts | 268° |
| 2026-05-03 21:07 | 26.06819 | -80.14230 | 12 ft | 8 kts | 270° |
| 2026-05-03 21:07 | 26.06819 | -80.14294 | 12 ft | 3 kts | 270° |
| 2026-05-03 21:07 | 26.06819 | -80.14304 | 12 ft | 0 kts | 271° |
| 2026-05-03 21:07 | 26.06819 | -80.14333 | 12 ft | 6 kts | 272° |
| 2026-05-03 21:08 | 26.06819 | -80.14404 | 12 ft | 11 kts | 269° |
| 2026-05-03 21:08 | 26.06820 | -80.14490 | 12 ft | 10 kts | 271° |
| 2026-05-03 21:08 | 26.06820 | -80.14512 | 12 ft | 0 kts | 271° |
| 2026-05-03 21:11 | 26.06820 | -80.14514 | 12 ft | 2 kts | 271° |
| 2026-05-03 21:12 | 26.06796 | -80.14581 | 12 ft | 11 kts | 215° |
| 2026-05-03 21:12 | 26.06767 | -80.14663 | 12 ft | 12 kts | 270° |
| 2026-05-03 21:12 | 26.06767 | -80.14776 | 12 ft | 19 kts | 270° |
| 2026-05-03 21:12 | 26.06768 | -80.14925 | 12 ft | 19 kts | 270° |
| 2026-05-03 21:13 | 26.06769 | -80.15056 | 12 ft | 11 kts | 270° |
| 2026-05-03 21:13 | 26.06796 | -80.15127 | 12 ft | 10 kts | 339° |
| 2026-05-03 21:13 | 26.06875 | -80.15130 | 12 ft | 11 kts | 0° |
| 2026-05-03 21:13 | 26.06979 | -80.15129 | 12 ft | 16 kts | 1° |
| 2026-05-03 21:14 | 26.07108 | -80.15128 | 12 ft | 18 kts | 1° |
| 2026-05-03 21:14 | 26.07236 | -80.15128 | 12 ft | 18 kts | 0° |
| 2026-05-03 21:14 | 26.07361 | -80.15126 | 12 ft | 14 kts | 1° |
| 2026-05-03 21:14 | 26.07416 | -80.15126 | 12 ft | 0 kts | 0° |
| 2026-05-03 21:17 | 26.07441 | -80.15126 | 12 ft | 11 kts | 0° |
| 2026-05-03 21:17 | 26.07491 | -80.15173 | 12 ft | 11 kts | 274° |
| 2026-05-03 21:18 | 26.07491 | -80.15291 | 12 ft | 20 kts | 270° |
| 2026-05-03 21:18 | 26.07492 | -80.15472 | 12 ft | 25 kts | 271° |
| 2026-05-03 21:18 | 26.07493 | -80.15665 | 12 ft | 24 kts | 270° |
| 2026-05-03 21:18 | 26.07495 | -80.15847 | 12 ft | 23 kts | 270° |
| 2026-05-03 21:19 | 26.07495 | -80.16025 | 12 ft | 22 kts | 270° |
| 2026-05-03 21:19 | 26.07496 | -80.16193 | 12 ft | 21 kts | 270° |
| 2026-05-03 21:19 | 26.07497 | -80.16344 | 12 ft | 12 kts | 270° |
| 2026-05-03 21:19 | 26.07497 | -80.16406 | 12 ft | 0 kts | 270° |
| 2026-05-03 21:23 | 26.07498 | -80.16442 | 12 ft | 9 kts | 270° |
| 2026-05-03 21:24 | 26.07498 | -80.16472 | 12 ft | 0 kts | 271° |
| 2026-05-03 21:30 | 26.07498 | -80.16473 | 12 ft | 1 kts | 271° |
| 2026-05-03 21:30 | 26.07498 | -80.16512 | 12 ft | 1 kts | 270° |
| 2026-05-03 21:32 | 26.07498 | -80.16524 | 12 ft | 5 kts | 270° |
| 2026-05-03 21:32 | 26.07498 | -80.16556 | 12 ft | 3 kts | 270° |
| 2026-05-03 21:32 | 26.07498 | -80.16576 | 12 ft | 0 kts | 270° |
| 2026-05-03 21:33 | 26.07498 | -80.16592 | 12 ft | 5 kts | 270° |
| 2026-05-03 21:34 | 26.07507 | -80.16633 | 12 ft | 3 kts | 312° |
| 2026-05-03 21:34 | 26.07509 | -80.16634 | 12 ft | 0 kts | 319° |
| 2026-05-03 21:37 | 26.07520 | -80.16641 | 12 ft | 4 kts | 340° |
| 2026-05-03 21:38 | 26.07536 | -80.16644 | 12 ft | 0 kts | 358° |
| 2026-05-03 21:42 | 26.07554 | -80.16644 | 12 ft | 8 kts | 0° |
| 2026-05-03 21:42 | 26.07595 | -80.16643 | 12 ft | 0 kts | 1° |
| 2026-05-03 21:45 | 26.07598 | -80.16643 | 12 ft | 4 kts | 1° |
| 2026-05-03 21:45 | 26.07665 | -80.16642 | 12 ft | 6 kts | 1° |
| 2026-05-03 21:45 | 26.07692 | -80.16629 | 12 ft | 4 kts | 78° |
| 2026-05-03 21:46 | 26.07694 | -80.16557 | 12 ft | 23 kts | 90° |
| 2026-05-03 21:46 | 26.07692 | -80.16094 | 12 ft | 94 kts | 90° |
| 2026-05-03 21:46 | 26.07686 | -80.15135 | 12 ft | 152 kts | 90° |
| 2026-05-03 21:46 | 26.07669 | -80.13786 | 193 ft | 184 kts | 91° |
| 2026-05-03 21:47 | 26.07631 | -80.12325 | 699 ft | 196 kts | 90° |
| 2026-05-03 21:47 | 26.07655 | -80.10777 | 1263 ft | 206 kts | 83° |
| 2026-05-03 21:47 | 26.08047 | -80.09239 | 1794 ft | 216 kts | 68° |
| 2026-05-03 21:47 | 26.08738 | -80.07671 | 2161 ft | 235 kts | 50° |
| 2026-05-03 21:48 | 26.10124 | -80.06602 | 2573 ft | 253 kts | 20° |
| 2026-05-03 21:48 | 26.11841 | -80.05986 | 3231 ft | 261 kts | 17° |
| 2026-05-03 21:48 | 26.13571 | -80.05334 | 3715 ft | 265 kts | 18° |
| 2026-05-03 21:48 | 26.15384 | -80.04906 | 3946 ft | 265 kts | 359° |
| 2026-05-03 21:49 | 26.17194 | -80.05222 | 3978 ft | 263 kts | 341° |
| 2026-05-03 21:49 | 26.18942 | -80.05895 | 3985 ft | 263 kts | 339° |
| 2026-05-03 21:49 | 26.20657 | -80.06593 | 3986 ft | 262 kts | 338° |
| 2026-05-03 21:49 | 26.22212 | -80.07641 | 3977 ft | 262 kts | 314° |
| 2026-05-03 21:50 | 26.23182 | -80.09341 | 3994 ft | 262 kts | 292° |
| 2026-05-03 21:50 | 26.23841 | -80.11227 | 3993 ft | 263 kts | 291° |
| 2026-05-03 21:50 | 26.24499 | -80.13155 | 3990 ft | 263 kts | 291° |
| 2026-05-03 21:50 | 26.25189 | -80.15052 | 3989 ft | 263 kts | 295° |
| 2026-05-03 21:51 | 26.26014 | -80.16846 | 3993 ft | 264 kts | 300° |
| 2026-05-03 21:51 | 26.26996 | -80.18623 | 4304 ft | 271 kts | 302° |
| 2026-05-03 21:51 | 26.28007 | -80.20390 | 5170 ft | 269 kts | 301° |
| 2026-05-03 21:51 | 26.29000 | -80.22120 | 6026 ft | 268 kts | 300° |
| 2026-05-03 21:52 | 26.29995 | -80.23866 | 6796 ft | 269 kts | 299° |
| 2026-05-03 21:52 | 26.31003 | -80.25645 | 7543 ft | 272 kts | 299° |
| 2026-05-03 21:52 | 26.32018 | -80.27437 | 8274 ft | 274 kts | 299° |
| 2026-05-03 21:52 | 26.33030 | -80.29225 | 8983 ft | 276 kts | 299° |
| 2026-05-03 21:53 | 26.34063 | -80.31046 | 9682 ft | 278 kts | 298° |
| 2026-05-03 21:53 | 26.35090 | -80.32862 | 10346 ft | 281 kts | 298° |
| 2026-05-03 21:53 | 26.36155 | -80.34749 | 10706 ft | 295 kts | 299° |
| 2026-05-03 21:53 | 26.37285 | -80.36749 | 11010 ft | 310 kts | 298° |
| 2026-05-03 21:54 | 26.38446 | -80.38804 | 11524 ft | 317 kts | 299° |
| 2026-05-03 21:54 | 26.39625 | -80.40884 | 12147 ft | 319 kts | 299° |
| 2026-05-03 21:54 | 26.40820 | -80.42996 | 12678 ft | 323 kts | 298° |
| 2026-05-03 21:54 | 26.42013 | -80.45104 | 12960 ft | 327 kts | 298° |
| 2026-05-03 21:55 | 26.43240 | -80.47274 | 12992 ft | 326 kts | 298° |
| 2026-05-03 21:55 | 26.44442 | -80.49400 | 13002 ft | 325 kts | 298° |
| 2026-05-03 21:55 | 26.45520 | -80.51311 | 12995 ft | 326 kts | 299° |
| 2026-05-03 21:55 | 26.46864 | -80.53687 | 12985 ft | 326 kts | 299° |
| 2026-05-03 21:56 | 26.48327 | -80.55615 | 12979 ft | 331 kts | 315° |
| 2026-05-03 21:56 | 26.50302 | -80.57014 | 12983 ft | 336 kts | 332° |
| 2026-05-03 21:56 | 26.52535 | -80.57845 | 13012 ft | 339 kts | 339° |
| 2026-05-03 21:56 | 26.54850 | -80.58569 | 13349 ft | 345 kts | 340° |
| 2026-05-03 21:57 | 26.57138 | -80.59270 | 14035 ft | 343 kts | 340° |
| 2026-05-03 21:57 | 26.59463 | -80.59988 | 14676 ft | 344 kts | 339° |
| 2026-05-03 21:57 | 26.61769 | -80.60709 | 15221 ft | 348 kts | 339° |
| 2026-05-03 21:57 | 26.64118 | -80.61453 | 15768 ft | 350 kts | 339° |
| 2026-05-03 21:58 | 26.66461 | -80.62194 | 16299 ft | 353 kts | 339° |
| 2026-05-03 21:58 | 26.68859 | -80.62956 | 16816 ft | 356 kts | 339° |
| 2026-05-03 21:58 | 26.71246 | -80.63718 | 17333 ft | 359 kts | 339° |
| 2026-05-03 21:58 | 26.73674 | -80.64490 | 17840 ft | 362 kts | 339° |
| 2026-05-03 21:59 | 26.76112 | -80.65269 | 18314 ft | 366 kts | 338° |
| 2026-05-03 21:59 | 26.78547 | -80.66058 | 18766 ft | 369 kts | 338° |
| 2026-05-03 21:59 | 26.81027 | -80.66860 | 18980 ft | 370 kts | 338° |
| 2026-05-03 21:59 | 26.83497 | -80.67653 | 18998 ft | 370 kts | 338° |
| 2026-05-03 22:00 | 26.86002 | -80.68454 | 18995 ft | 369 kts | 338° |
| 2026-05-03 22:00 | 26.88466 | -80.69241 | 18991 ft | 368 kts | 338° |
| 2026-05-03 22:00 | 26.90942 | -80.70040 | 19011 ft | 367 kts | 336° |
| 2026-05-03 22:00 | 26.93367 | -80.70928 | 19009 ft | 366 kts | 335° |
| 2026-05-03 22:01 | 26.95792 | -80.71845 | 19009 ft | 367 kts | 335° |
| 2026-05-03 22:01 | 26.98233 | -80.72772 | 19011 ft | 367 kts | 335° |
| 2026-05-03 22:01 | 27.00658 | -80.73692 | 19015 ft | 367 kts | 335° |
| 2026-05-03 22:01 | 27.03096 | -80.74618 | 19012 ft | 368 kts | 335° |
| 2026-05-03 22:02 | 27.05538 | -80.75542 | 19013 ft | 368 kts | 335° |
| 2026-05-03 22:02 | 27.07962 | -80.76459 | 19015 ft | 368 kts | 335° |
| 2026-05-03 22:02 | 27.10412 | -80.77387 | 19014 ft | 368 kts | 335° |
| 2026-05-03 22:02 | 27.12825 | -80.78295 | 19013 ft | 368 kts | 335° |
| 2026-05-03 22:03 | 27.15261 | -80.79213 | 19017 ft | 368 kts | 335° |
| 2026-05-03 22:03 | 27.17713 | -80.80138 | 19017 ft | 368 kts | 335° |
| 2026-05-03 22:03 | 27.20137 | -80.81054 | 19019 ft | 368 kts | 334° |
| 2026-05-03 22:03 | 27.22571 | -80.81977 | 18810 ft | 368 kts | 334° |
| 2026-05-03 22:04 | 27.24999 | -80.82899 | 18573 ft | 366 kts | 335° |
| 2026-05-03 22:04 | 27.27406 | -80.83814 | 18336 ft | 363 kts | 335° |
| 2026-05-03 22:04 | 27.29819 | -80.84731 | 18096 ft | 363 kts | 334° |
| 2026-05-03 22:04 | 27.32223 | -80.85617 | 17858 ft | 363 kts | 337° |
| 2026-05-03 22:05 | 27.34652 | -80.86376 | 17618 ft | 362 kts | 338° |
| 2026-05-03 22:05 | 27.37107 | -80.87107 | 17379 ft | 361 kts | 339° |
| 2026-05-03 22:05 | 27.39559 | -80.87832 | 17143 ft | 359 kts | 339° |
| 2026-05-03 22:05 | 27.41952 | -80.88541 | 16919 ft | 357 kts | 339° |
| 2026-05-03 22:06 | 27.44372 | -80.89258 | 16697 ft | 356 kts | 338° |
| 2026-05-03 22:06 | 27.46787 | -80.89974 | 16436 ft | 356 kts | 338° |
| 2026-05-03 22:06 | 27.49169 | -80.90683 | 16108 ft | 354 kts | 338° |
| 2026-05-03 22:06 | 27.51560 | -80.91393 | 15738 ft | 352 kts | 338° |
| 2026-05-03 22:07 | 27.53927 | -80.92100 | 15352 ft | 350 kts | 339° |
| 2026-05-03 22:07 | 27.56278 | -80.92802 | 14954 ft | 349 kts | 339° |
| 2026-05-03 22:07 | 27.58630 | -80.93504 | 14529 ft | 348 kts | 339° |
| 2026-05-03 22:07 | 27.60965 | -80.94199 | 14106 ft | 348 kts | 339° |
| 2026-05-03 22:08 | 27.63303 | -80.94897 | 13685 ft | 347 kts | 339° |
| 2026-05-03 22:08 | 27.65650 | -80.95597 | 13275 ft | 346 kts | 339° |
| 2026-05-03 22:08 | 27.67989 | -80.96296 | 12870 ft | 344 kts | 339° |
| 2026-05-03 22:08 | 27.70293 | -80.96985 | 12472 ft | 342 kts | 340° |
| 2026-05-03 22:09 | 27.72579 | -80.97669 | 12077 ft | 340 kts | 340° |
| 2026-05-03 22:09 | 27.74858 | -80.98350 | 11679 ft | 339 kts | 340° |
| 2026-05-03 22:09 | 27.77147 | -80.99034 | 11286 ft | 336 kts | 340° |
| 2026-05-03 22:10 | 27.81646 | -81.00382 | 10503 ft | 332 kts | 340° |
| 2026-05-03 22:10 | 27.83897 | -81.01055 | 10111 ft | 330 kts | 340° |
| 2026-05-03 22:10 | 27.86087 | -81.01709 | 10013 ft | 317 kts | 340° |
| 2026-05-03 22:10 | 27.88179 | -81.02331 | 9957 ft | 304 kts | 340° |
| 2026-05-03 22:11 | 27.90197 | -81.02934 | 9712 ft | 299 kts | 340° |
| 2026-05-03 22:11 | 27.92202 | -81.03542 | 9415 ft | 295 kts | 340° |
| 2026-05-03 22:11 | 27.94153 | -81.04216 | 9118 ft | 291 kts | 335° |
| 2026-05-03 22:11 | 27.96067 | -81.05010 | 8726 ft | 291 kts | 335° |
| 2026-05-03 22:12 | 27.97947 | -81.05817 | 8432 ft | 287 kts | 334° |
| 2026-05-03 22:12 | 27.99651 | -81.06941 | 8073 ft | 282 kts | 319° |
| 2026-05-03 22:12 | 28.01132 | -81.08369 | 7622 ft | 277 kts | 315° |
| 2026-05-03 22:12 | 28.02558 | -81.09811 | 7180 ft | 274 kts | 316° |
| 2026-05-03 22:13 | 28.04001 | -81.11233 | 6703 ft | 279 kts | 317° |
| 2026-05-03 22:13 | 28.05483 | -81.12650 | 6389 ft | 276 kts | 319° |
| 2026-05-03 22:13 | 28.06956 | -81.14031 | 6130 ft | 272 kts | 319° |
| 2026-05-03 22:13 | 28.08404 | -81.15378 | 5878 ft | 268 kts | 320° |
| 2026-05-03 22:14 | 28.09857 | -81.16723 | 5591 ft | 265 kts | 321° |
| 2026-05-03 22:14 | 28.11282 | -81.18034 | 5360 ft | 261 kts | 322° |
| 2026-05-03 22:14 | 28.12691 | -81.19322 | 5142 ft | 256 kts | 322° |
| 2026-05-03 22:14 | 28.14049 | -81.20586 | 5019 ft | 246 kts | 320° |
| 2026-05-03 22:15 | 28.15322 | -81.21858 | 4990 ft | 241 kts | 319° |
| 2026-05-03 22:15 | 28.16568 | -81.23127 | 4814 ft | 244 kts | 319° |
| 2026-05-03 22:15 | 28.17824 | -81.24406 | 4510 ft | 244 kts | 320° |
| 2026-05-03 22:15 | 28.19098 | -81.25704 | 4218 ft | 244 kts | 321° |
| 2026-05-03 22:16 | 28.20360 | -81.26986 | 4011 ft | 240 kts | 321° |
| 2026-05-03 22:16 | 28.21734 | -81.27917 | 3854 ft | 228 kts | 348° |
| 2026-05-03 22:16 | 28.23314 | -81.28143 | 3591 ft | 225 kts | 3° |
| 2026-05-03 22:16 | 28.24883 | -81.28126 | 3299 ft | 226 kts | 5° |
| 2026-05-03 22:17 | 28.26434 | -81.28095 | 2986 ft | 221 kts | 5° |
| 2026-05-03 22:17 | 28.27979 | -81.28093 | 2694 ft | 215 kts | 4° |
| 2026-05-03 22:17 | 28.29457 | -81.28107 | 2435 ft | 208 kts | 4° |
| 2026-05-03 22:17 | 28.30846 | -81.28125 | 2256 ft | 194 kts | 5° |
| 2026-05-03 22:18 | 28.32168 | -81.28140 | 1976 ft | 184 kts | 5° |
| 2026-05-03 22:18 | 28.33425 | -81.28154 | 1775 ft | 172 kts | 5° |
| 2026-05-03 22:18 | 28.34574 | -81.28167 | 1518 ft | 160 kts | 5° |
| 2026-05-03 22:18 | 28.35667 | -81.28178 | 1288 ft | 149 kts | 5° |
| 2026-05-03 22:19 | 28.36676 | -81.28188 | 1082 ft | 143 kts | 6° |
| 2026-05-03 22:19 | 28.37676 | -81.28194 | 901 ft | 143 kts | 7° |
| 2026-05-03 22:19 | 28.38676 | -81.28199 | 723 ft | 143 kts | 5° |
| 2026-05-03 22:19 | 28.39679 | -81.28213 | 538 ft | 143 kts | 5° |
| 2026-05-03 22:20 | 28.40689 | -81.28228 | 358 ft | 143 kts | 4° |
| 2026-05-03 22:20 | 28.41684 | -81.28245 | 169 ft | 143 kts | 4° |
| 2026-05-03 22:20 | 28.42664 | -81.28243 | 92 ft | 130 kts | 3° |
| 2026-05-03 22:20 | 28.43448 | -81.28248 | 88 ft | 89 kts | 1° |
| 2026-05-03 22:21 | 28.43903 | -81.28254 | 88 ft | 39 kts | 0° |
| 2026-05-03 22:21 | 28.44142 | -81.28256 | 88 ft | 32 kts | 1° |
| 2026-05-03 22:21 | 28.44246 | -81.28292 | 89 ft | 13 kts | 291° |
| 2026-05-03 22:21 | 28.44247 | -81.28348 | 89 ft | 8 kts | 255° |
| 2026-05-03 22:22 | 28.44175 | -81.28381 | 88 ft | 16 kts | 179° |
| 2026-05-03 22:22 | 28.44034 | -81.28379 | 87 ft | 23 kts | 179° |
| 2026-05-03 22:22 | 28.43903 | -81.28383 | 87 ft | 14 kts | 204° |
| 2026-05-03 22:22 | 28.43875 | -81.28505 | 87 ft | 19 kts | 268° |
| 2026-05-03 22:23 | 28.43874 | -81.28683 | 87 ft | 25 kts | 270° |
| 2026-05-03 22:23 | 28.43871 | -81.28886 | 87 ft | 25 kts | 269° |
| 2026-05-03 22:23 | 28.43870 | -81.29083 | 87 ft | 24 kts | 269° |
| 2026-05-03 22:23 | 28.43867 | -81.29238 | 87 ft | 10 kts | 250° |
| 2026-05-03 22:24 | 28.43799 | -81.29264 | 88 ft | 13 kts | 179° |
| 2026-05-03 22:24 | 28.43682 | -81.29263 | 89 ft | 19 kts | 180° |
| 2026-05-03 22:24 | 28.43572 | -81.29270 | 90 ft | 12 kts | 213° |
| 2026-05-03 22:24 | 28.43553 | -81.29363 | 91 ft | 13 kts | 269° |
| 2026-05-03 22:25 | 28.43552 | -81.29468 | 91 ft | 7 kts | 270° |
| 2026-05-03 22:25 | 28.43552 | -81.29472 | 91 ft | 0 kts | 270° |
| 2026-05-03 22:26 | 28.43552 | -81.29476 | 91 ft | 3 kts | 270° |
| 2026-05-03 22:26 | 28.43551 | -81.29549 | 91 ft | 11 kts | 269° |
| 2026-05-03 22:27 | 28.43550 | -81.29643 | 91 ft | 12 kts | 269° |
| 2026-05-03 22:27 | 28.43549 | -81.29688 | 91 ft | 4 kts | 268° |
| 2026-05-03 22:27 | 28.43549 | -81.29755 | 91 ft | 7 kts | 270° |
| 2026-05-03 22:27 | 28.43588 | -81.29805 | 91 ft | 12 kts | 352° |
| 2026-05-03 22:28 | 28.43691 | -81.29807 | 91 ft | 16 kts | 357° |
| 2026-05-03 22:28 | 28.43798 | -81.29845 | 91 ft | 16 kts | 328° |
| 2026-05-03 22:28 | 28.43875 | -81.29939 | 91 ft | 16 kts | 301° |
| 2026-05-03 22:28 | 28.43900 | -81.30063 | 91 ft | 16 kts | 273° |
| 2026-05-03 22:29 | 28.43908 | -81.30235 | 91 ft | 26 kts | 272° |
| 2026-05-03 22:29 | 28.43917 | -81.30451 | 90 ft | 27 kts | 273° |
| 2026-05-03 22:29 | 28.43931 | -81.30673 | 88 ft | 27 kts | 274° |
| 2026-05-03 22:29 | 28.43943 | -81.30889 | 87 ft | 26 kts | 271° |
| 2026-05-03 22:30 | 28.43941 | -81.31094 | 89 ft | 25 kts | 268° |
| 2026-05-03 22:30 | 28.43932 | -81.31288 | 90 ft | 23 kts | 267° |
| 2026-05-03 22:30 | 28.43924 | -81.31466 | 91 ft | 21 kts | 269° |
| 2026-05-03 22:30 | 28.43924 | -81.31625 | 91 ft | 8 kts | 270° |
| 2026-05-03 22:31 | 28.43889 | -81.31687 | 91 ft | 13 kts | 186° |
| 2026-05-03 22:31 | 28.43787 | -81.31660 | 91 ft | 18 kts | 141° |
| 2026-05-03 22:31 | 28.43683 | -81.31621 | 90 ft | 15 kts | 191° |
| 2026-05-03 22:31 | 28.43554 | -81.31651 | 88 ft | 20 kts | 191° |
| 2026-05-03 22:32 | 28.43414 | -81.31683 | 88 ft | 16 kts | 193° |
| 2026-05-03 22:32 | 28.43396 | -81.31688 | 88 ft | 0 kts | 192° |
| 2026-05-03 22:39 | 28.43394 | -81.31689 | 88 ft | 2 kts | 193° |
| 2026-05-03 22:39 | 28.43337 | -81.31702 | 88 ft | 10 kts | 191° |
| 2026-05-03 22:40 | 28.43283 | -81.31664 | 88 ft | 10 kts | 105° |
| 2026-05-03 22:40 | 28.43269 | -81.31587 | 88 ft | 9 kts | 99° |
| 2026-05-03 22:40 | 28.43281 | -81.31516 | 87 ft | 6 kts | 57° |
| 2026-05-03 22:40 | 28.43311 | -81.31509 | 88 ft | 4 kts | 346° |
| 2026-05-03 22:41 | 28.43339 | -81.31521 | 88 ft | 1 kts | 338° |
| 2026-05-03 22:41 | 28.43344 | -81.31523 | 88 ft | 0 kts | 339° |
| 2026-05-03 22:41 | 28.43345 | -81.31524 | 88 ft | 0 kts | 339° |